sensor_id;sensor_type;location;lat;lon;timestamp;temperature;humidity
63094;DHT22;49183;51.380;0.098;2023-09-12T00:00:49;16.30;93.00
63094;DHT22;49183;51.380;0.098;2023-09-12T00:03:22;16.30;93.00
63094;DHT22;49183;51.380;0.098;2023-09-12T00:05:55;16.30;93.00
63094;DHT22;49183;51.380;0.098;2023-09-12T00:08:24;16.30;93.00
63094;DHT22;49183;51.380;0.098;2023-09-12T00:11:03;16.30;93.10
63094;DHT22;49183;51.380;0.098;2023-09-12T00:13:31;16.30;93.10
63094;DHT22;49183;51.380;0.098;2023-09-12T00:15:59;16.30;93.10
63094;DHT22;49183;51.380;0.098;2023-09-12T00:18:27;16.30;93.10
63094;DHT22;49183;51.380;0.098;2023-09-12T00:20:55;16.30;93.10
63094;DHT22;49183;51.380;0.098;2023-09-12T00:23:23;16.30;93.10
63094;DHT22;49183;51.380;0.098;2023-09-12T00:25:51;16.40;93.10
63094;DHT22;49183;51.380;0.098;2023-09-12T00:28:20;16.30;93.10
63094;DHT22;49183;51.380;0.098;2023-09-12T00:30:48;16.40;93.10
63094;DHT22;49183;51.380;0.098;2023-09-12T00:33:16;16.30;93.10
63094;DHT22;49183;51.380;0.098;2023-09-12T00:35:44;16.40;93.10
63094;DHT22;49183;51.380;0.098;2023-09-12T00:38:12;16.30;93.10
63094;DHT22;49183;51.380;0.098;2023-09-12T00:40:40;16.30;93.10
63094;DHT22;49183;51.380;0.098;2023-09-12T00:43:07;16.30;93.10
63094;DHT22;49183;51.380;0.098;2023-09-12T00:45:35;16.30;93.20
63094;DHT22;49183;51.380;0.098;2023-09-12T00:48:04;16.30;93.20
63094;DHT22;49183;51.380;0.098;2023-09-12T00:50:33;16.30;93.20
63094;DHT22;49183;51.380;0.098;2023-09-12T00:53:02;16.30;93.20
63094;DHT22;49183;51.380;0.098;2023-09-12T00:55:32;16.30;93.20
63094;DHT22;49183;51.380;0.098;2023-09-12T00:58:01;16.30;93.20
63094;DHT22;49183;51.380;0.098;2023-09-12T01:00:29;16.30;93.20
63094;DHT22;49183;51.380;0.098;2023-09-12T01:02:58;16.30;93.30
63094;DHT22;49183;51.380;0.098;2023-09-12T01:05:27;16.30;93.30
63094;DHT22;49183;51.380;0.098;2023-09-12T01:07:57;16.30;93.30
63094;DHT22;49183;51.380;0.098;2023-09-12T01:10:24;16.30;93.30
63094;DHT22;49183;51.380;0.098;2023-09-12T01:12:52;16.30;93.30
63094;DHT22;49183;51.380;0.098;2023-09-12T01:15:20;16.30;93.30
63094;DHT22;49183;51.380;0.098;2023-09-12T01:17:48;16.30;93.30
63094;DHT22;49183;51.380;0.098;2023-09-12T01:20:23;16.30;93.30
63094;DHT22;49183;51.380;0.098;2023-09-12T01:26:17;16.30;93.40
63094;DHT22;49183;51.380;0.098;2023-09-12T01:28:40;16.30;93.30
63094;DHT22;49183;51.380;0.098;2023-09-12T01:31:12;16.30;93.30
63094;DHT22;49183;51.380;0.098;2023-09-12T01:33:40;16.20;93.30
63094;DHT22;49183;51.380;0.098;2023-09-12T01:36:10;16.20;93.40
63094;DHT22;49183;51.380;0.098;2023-09-12T01:38:40;16.20;93.40
63094;DHT22;49183;51.380;0.098;2023-09-12T01:41:08;16.10;93.40
63094;DHT22;49183;51.380;0.098;2023-09-12T01:43:36;16.10;93.50
63094;DHT22;49183;51.380;0.098;2023-09-12T01:46:07;16.10;93.50
63094;DHT22;49183;51.380;0.098;2023-09-12T01:48:36;16.00;93.50
63094;DHT22;49183;51.380;0.098;2023-09-12T01:51:05;16.00;93.50
63094;DHT22;49183;51.380;0.098;2023-09-12T01:53:34;15.90;93.50
63094;DHT22;49183;51.380;0.098;2023-09-12T01:56:03;15.90;93.60
63094;DHT22;49183;51.380;0.098;2023-09-12T01:58:32;15.90;93.60
63094;DHT22;49183;51.380;0.098;2023-09-12T02:00:59;15.90;93.60
63094;DHT22;49183;51.380;0.098;2023-09-12T02:03:30;15.90;93.60
63094;DHT22;49183;51.380;0.098;2023-09-12T02:05:58;15.90;93.60
63094;DHT22;49183;51.380;0.098;2023-09-12T02:08:25;15.90;93.60
63094;DHT22;49183;51.380;0.098;2023-09-12T02:10:53;15.80;93.60
63094;DHT22;49183;51.380;0.098;2023-09-12T02:13:20;15.80;93.60
63094;DHT22;49183;51.380;0.098;2023-09-12T02:15:49;15.80;93.60
63094;DHT22;49183;51.380;0.098;2023-09-12T02:18:17;15.80;93.60
63094;DHT22;49183;51.380;0.098;2023-09-12T02:20:45;15.80;93.60
63094;DHT22;49183;51.380;0.098;2023-09-12T02:23:13;15.80;93.70
63094;DHT22;49183;51.380;0.098;2023-09-12T02:25:42;15.80;93.70
63094;DHT22;49183;51.380;0.098;2023-09-12T02:28:12;15.80;93.70
63094;DHT22;49183;51.380;0.098;2023-09-12T02:30:39;15.80;93.70
63094;DHT22;49183;51.380;0.098;2023-09-12T02:33:10;15.80;93.70
63094;DHT22;49183;51.380;0.098;2023-09-12T02:35:38;15.80;93.70
63094;DHT22;49183;51.380;0.098;2023-09-12T02:38:07;15.80;93.80
63094;DHT22;49183;51.380;0.098;2023-09-12T02:40:35;15.80;93.80
63094;DHT22;49183;51.380;0.098;2023-09-12T02:43:03;15.80;93.80
63094;DHT22;49183;51.380;0.098;2023-09-12T02:45:31;15.70;93.80
63094;DHT22;49183;51.380;0.098;2023-09-12T02:47:58;15.70;93.80
63094;DHT22;49183;51.380;0.098;2023-09-12T02:50:26;15.70;93.80
63094;DHT22;49183;51.380;0.098;2023-09-12T02:52:54;15.70;93.90
63094;DHT22;49183;51.380;0.098;2023-09-12T02:55:21;15.70;93.90
63094;DHT22;49183;51.380;0.098;2023-09-12T02:57:49;15.70;93.90
63094;DHT22;49183;51.380;0.098;2023-09-12T03:00:17;15.70;93.90
63094;DHT22;49183;51.380;0.098;2023-09-12T03:02:46;15.60;93.90
63094;DHT22;49183;51.380;0.098;2023-09-12T03:05:14;15.60;93.90
63094;DHT22;49183;51.380;0.098;2023-09-12T03:07:42;15.60;93.90
63094;DHT22;49183;51.380;0.098;2023-09-12T03:10:09;15.60;93.90
63094;DHT22;49183;51.380;0.098;2023-09-12T03:12:37;15.60;93.90
63094;DHT22;49183;51.380;0.098;2023-09-12T03:15:09;15.60;94.00
63094;DHT22;49183;51.380;0.098;2023-09-12T03:17:37;15.70;94.00
63094;DHT22;49183;51.380;0.098;2023-09-12T03:20:06;15.60;94.00
63094;DHT22;49183;51.380;0.098;2023-09-12T03:22:36;15.60;94.00
63094;DHT22;49183;51.380;0.098;2023-09-12T03:25:06;15.60;94.00
63094;DHT22;49183;51.380;0.098;2023-09-12T03:27:34;15.60;94.00
63094;DHT22;49183;51.380;0.098;2023-09-12T03:30:04;15.60;94.00
63094;DHT22;49183;51.380;0.098;2023-09-12T03:32:32;15.60;94.00
63094;DHT22;49183;51.380;0.098;2023-09-12T03:35:00;15.70;94.00
63094;DHT22;49183;51.380;0.098;2023-09-12T03:37:28;15.70;94.00
63094;DHT22;49183;51.380;0.098;2023-09-12T03:39:56;15.70;94.00
63094;DHT22;49183;51.380;0.098;2023-09-12T03:42:24;15.60;94.00
63094;DHT22;49183;51.380;0.098;2023-09-12T03:45:01;15.60;94.10
63094;DHT22;49183;51.380;0.098;2023-09-12T03:47:29;15.70;94.10
63094;DHT22;49183;51.380;0.098;2023-09-12T03:49:56;15.70;94.10
63094;DHT22;49183;51.380;0.098;2023-09-12T03:52:24;15.70;94.10
63094;DHT22;49183;51.380;0.098;2023-09-12T03:54:52;15.70;94.10
63094;DHT22;49183;51.380;0.098;2023-09-12T03:57:20;15.70;94.10
63094;DHT22;49183;51.380;0.098;2023-09-12T03:59:47;15.70;94.10
63094;DHT22;49183;51.380;0.098;2023-09-12T04:02:15;15.70;94.10
63094;DHT22;49183;51.380;0.098;2023-09-12T04:04:44;15.70;94.10
63094;DHT22;49183;51.380;0.098;2023-09-12T04:07:12;15.80;94.10
63094;DHT22;49183;51.380;0.098;2023-09-12T04:09:40;15.70;94.10
63094;DHT22;49183;51.380;0.098;2023-09-12T04:12:08;15.80;94.10
63094;DHT22;49183;51.380;0.098;2023-09-12T04:14:36;15.70;94.10
63094;DHT22;49183;51.380;0.098;2023-09-12T04:17:04;15.80;94.20
63094;DHT22;49183;51.380;0.098;2023-09-12T04:19:35;15.80;94.10
63094;DHT22;49183;51.380;0.098;2023-09-12T04:22:03;15.70;94.10
63094;DHT22;49183;51.380;0.098;2023-09-12T04:24:32;15.80;94.20
63094;DHT22;49183;51.380;0.098;2023-09-12T04:27:00;15.80;94.20
63094;DHT22;49183;51.380;0.098;2023-09-12T04:29:28;15.80;94.20
63094;DHT22;49183;51.380;0.098;2023-09-12T04:31:56;15.80;94.20
63094;DHT22;49183;51.380;0.098;2023-09-12T04:34:27;15.80;94.20
63094;DHT22;49183;51.380;0.098;2023-09-12T04:36:55;15.70;94.20
63094;DHT22;49183;51.380;0.098;2023-09-12T04:39:23;15.80;94.20
63094;DHT22;49183;51.380;0.098;2023-09-12T04:41:52;15.70;94.20
63094;DHT22;49183;51.380;0.098;2023-09-12T04:44:20;15.80;94.20
63094;DHT22;49183;51.380;0.098;2023-09-12T04:46:48;15.70;94.20
63094;DHT22;49183;51.380;0.098;2023-09-12T04:49:16;15.70;94.20
63094;DHT22;49183;51.380;0.098;2023-09-12T04:51:43;15.70;94.20
63094;DHT22;49183;51.380;0.098;2023-09-12T04:54:11;15.70;94.20
63094;DHT22;49183;51.380;0.098;2023-09-12T04:56:39;15.70;94.20
63094;DHT22;49183;51.380;0.098;2023-09-12T04:59:07;15.70;94.20
63094;DHT22;49183;51.380;0.098;2023-09-12T05:01:35;15.70;94.20
63094;DHT22;49183;51.380;0.098;2023-09-12T05:04:04;15.60;94.20
63094;DHT22;49183;51.380;0.098;2023-09-12T05:06:31;15.60;94.20
63094;DHT22;49183;51.380;0.098;2023-09-12T05:09:00;15.60;94.20
63094;DHT22;49183;51.380;0.098;2023-09-12T05:11:28;15.60;94.20
63094;DHT22;49183;51.380;0.098;2023-09-12T05:13:56;15.60;94.20
63094;DHT22;49183;51.380;0.098;2023-09-12T05:16:24;15.70;94.30
63094;DHT22;49183;51.380;0.098;2023-09-12T05:18:52;15.70;94.30
63094;DHT22;49183;51.380;0.098;2023-09-12T05:21:20;15.70;94.30
63094;DHT22;49183;51.380;0.098;2023-09-12T05:23:48;15.70;94.30
63094;DHT22;49183;51.380;0.098;2023-09-12T05:26:16;15.70;94.30
63094;DHT22;49183;51.380;0.098;2023-09-12T05:28:44;15.70;94.30
63094;DHT22;49183;51.380;0.098;2023-09-12T05:31:12;15.70;94.30
63094;DHT22;49183;51.380;0.098;2023-09-12T05:33:40;15.70;94.30
63094;DHT22;49183;51.380;0.098;2023-09-12T05:36:08;15.70;94.30
63094;DHT22;49183;51.380;0.098;2023-09-12T05:38:36;15.80;94.30
63094;DHT22;49183;51.380;0.098;2023-09-12T05:41:04;15.80;94.30
63094;DHT22;49183;51.380;0.098;2023-09-12T05:43:31;15.80;94.30
63094;DHT22;49183;51.380;0.098;2023-09-12T05:45:59;15.70;94.30
63094;DHT22;49183;51.380;0.098;2023-09-12T05:48:27;15.80;94.30
63094;DHT22;49183;51.380;0.098;2023-09-12T05:50:55;15.80;94.30
63094;DHT22;49183;51.380;0.098;2023-09-12T05:53:23;15.80;94.30
63094;DHT22;49183;51.380;0.098;2023-09-12T05:55:51;15.80;94.30
63094;DHT22;49183;51.380;0.098;2023-09-12T05:58:19;15.80;94.30
63094;DHT22;49183;51.380;0.098;2023-09-12T06:00:47;15.80;94.30
63094;DHT22;49183;51.380;0.098;2023-09-12T06:03:15;15.80;94.30
63094;DHT22;49183;51.380;0.098;2023-09-12T06:05:44;15.80;94.30
63094;DHT22;49183;51.380;0.098;2023-09-12T06:08:11;15.80;94.30
63094;DHT22;49183;51.380;0.098;2023-09-12T06:10:39;15.80;94.30
63094;DHT22;49183;51.380;0.098;2023-09-12T06:13:07;15.80;94.30
63094;DHT22;49183;51.380;0.098;2023-09-12T06:15:37;15.80;94.30
63094;DHT22;49183;51.380;0.098;2023-09-12T06:18:08;15.80;94.30
63094;DHT22;49183;51.380;0.098;2023-09-12T06:20:38;15.80;94.30
63094;DHT22;49183;51.380;0.098;2023-09-12T06:23:06;15.80;94.40
63094;DHT22;49183;51.380;0.098;2023-09-12T06:25:34;15.80;94.40
63094;DHT22;49183;51.380;0.098;2023-09-12T06:28:03;15.80;94.40
63094;DHT22;49183;51.380;0.098;2023-09-12T06:30:31;15.80;94.40
63094;DHT22;49183;51.380;0.098;2023-09-12T06:32:59;15.90;94.40
63094;DHT22;49183;51.380;0.098;2023-09-12T06:35:27;15.90;94.40
63094;DHT22;49183;51.380;0.098;2023-09-12T06:37:54;15.90;94.40
63094;DHT22;49183;51.380;0.098;2023-09-12T06:40:23;15.90;94.40
63094;DHT22;49183;51.380;0.098;2023-09-12T06:42:51;15.90;94.30
63094;DHT22;49183;51.380;0.098;2023-09-12T06:45:19;15.90;94.30
63094;DHT22;49183;51.380;0.098;2023-09-12T06:47:47;15.90;94.40
63094;DHT22;49183;51.380;0.098;2023-09-12T06:50:14;15.90;94.40
63094;DHT22;49183;51.380;0.098;2023-09-12T06:52:44;15.90;94.40
63094;DHT22;49183;51.380;0.098;2023-09-12T06:55:11;16.00;94.40
63094;DHT22;49183;51.380;0.098;2023-09-12T06:57:39;15.90;94.40
63094;DHT22;49183;51.380;0.098;2023-09-12T07:00:08;16.00;94.40
63094;DHT22;49183;51.380;0.098;2023-09-12T07:02:36;15.90;94.40
63094;DHT22;49183;51.380;0.098;2023-09-12T07:05:04;15.90;94.40
63094;DHT22;49183;51.380;0.098;2023-09-12T07:07:33;15.90;94.40
63094;DHT22;49183;51.380;0.098;2023-09-12T07:10:00;16.00;94.40
63094;DHT22;49183;51.380;0.098;2023-09-12T07:12:49;15.90;94.40
63094;DHT22;49183;51.380;0.098;2023-09-12T07:15:18;15.90;94.40
63094;DHT22;49183;51.380;0.098;2023-09-12T07:17:47;16.00;94.40
63094;DHT22;49183;51.380;0.098;2023-09-12T07:20:16;16.00;94.40
63094;DHT22;49183;51.380;0.098;2023-09-12T07:22:46;16.00;94.40
63094;DHT22;49183;51.380;0.098;2023-09-12T07:25:17;16.00;94.40
63094;DHT22;49183;51.380;0.098;2023-09-12T07:27:48;16.00;94.40
63094;DHT22;49183;51.380;0.098;2023-09-12T07:30:17;16.00;94.40
63094;DHT22;49183;51.380;0.098;2023-09-12T07:32:45;16.00;94.30
63094;DHT22;49183;51.380;0.098;2023-09-12T07:35:13;15.80;93.60
63094;DHT22;49183;51.380;0.098;2023-09-12T07:37:40;15.60;93.50
63094;DHT22;49183;51.380;0.098;2023-09-12T07:40:09;15.30;93.20
63094;DHT22;49183;51.380;0.098;2023-09-12T07:42:37;15.10;93.30
63094;DHT22;49183;51.380;0.098;2023-09-12T07:45:05;14.90;93.40
63094;DHT22;49183;51.380;0.098;2023-09-12T07:47:33;14.70;93.50
63094;DHT22;49183;51.380;0.098;2023-09-12T07:50:01;14.60;93.80
63094;DHT22;49183;51.380;0.098;2023-09-12T07:52:29;14.50;94.00
63094;DHT22;49183;51.380;0.098;2023-09-12T07:55:00;14.50;94.10
63094;DHT22;49183;51.380;0.098;2023-09-12T07:57:29;14.40;94.10
63094;DHT22;49183;51.380;0.098;2023-09-12T07:59:57;14.40;94.20
63094;DHT22;49183;51.380;0.098;2023-09-12T08:02:25;14.40;94.20
63094;DHT22;49183;51.380;0.098;2023-09-12T08:04:52;14.40;94.30
63094;DHT22;49183;51.380;0.098;2023-09-12T08:07:23;14.40;94.30
63094;DHT22;49183;51.380;0.098;2023-09-12T08:09:55;14.40;94.30
63094;DHT22;49183;51.380;0.098;2023-09-12T08:12:27;14.40;94.40
63094;DHT22;49183;51.380;0.098;2023-09-12T08:14:56;14.40;94.50
63094;DHT22;49183;51.380;0.098;2023-09-12T08:17:23;14.40;94.50
63094;DHT22;49183;51.380;0.098;2023-09-12T08:19:51;14.50;94.50
63094;DHT22;49183;51.380;0.098;2023-09-12T08:22:19;14.50;94.40
63094;DHT22;49183;51.380;0.098;2023-09-12T08:24:47;14.50;94.50
63094;DHT22;49183;51.380;0.098;2023-09-12T08:27:15;14.50;94.40
63094;DHT22;49183;51.380;0.098;2023-09-12T08:29:42;14.50;94.30
63094;DHT22;49183;51.380;0.098;2023-09-12T08:32:12;14.40;94.30
63094;DHT22;49183;51.380;0.098;2023-09-12T08:34:40;14.40;94.30
63094;DHT22;49183;51.380;0.098;2023-09-12T08:37:07;14.50;94.50
63094;DHT22;49183;51.380;0.098;2023-09-12T08:39:45;14.50;94.60
63094;DHT22;49183;51.380;0.098;2023-09-12T08:42:14;14.60;94.50
63094;DHT22;49183;51.380;0.098;2023-09-12T08:44:43;14.60;94.50
63094;DHT22;49183;51.380;0.098;2023-09-12T08:47:11;14.70;94.30
63094;DHT22;49183;51.380;0.098;2023-09-12T08:49:40;14.60;94.20
63094;DHT22;49183;51.380;0.098;2023-09-12T08:52:10;14.60;94.30
63094;DHT22;49183;51.380;0.098;2023-09-12T08:54:38;14.60;94.40
63094;DHT22;49183;51.380;0.098;2023-09-12T08:57:06;14.60;94.40
63094;DHT22;49183;51.380;0.098;2023-09-12T08:59:34;14.60;94.30
63094;DHT22;49183;51.380;0.098;2023-09-12T09:02:03;14.60;94.30
63094;DHT22;49183;51.380;0.098;2023-09-12T09:04:34;14.50;94.20
63094;DHT22;49183;51.380;0.098;2023-09-12T09:07:03;14.50;94.30
63094;DHT22;49183;51.380;0.098;2023-09-12T09:09:32;14.50;94.40
63094;DHT22;49183;51.380;0.098;2023-09-12T09:12:00;14.50;94.30
63094;DHT22;49183;51.380;0.098;2023-09-12T09:14:29;14.50;94.40
63094;DHT22;49183;51.380;0.098;2023-09-12T09:16:58;14.50;94.40
63094;DHT22;49183;51.380;0.098;2023-09-12T09:19:42;14.50;94.40
63094;DHT22;49183;51.380;0.098;2023-09-12T09:22:10;14.60;94.40
63094;DHT22;49183;51.380;0.098;2023-09-12T09:24:38;14.60;94.30
63094;DHT22;49183;51.380;0.098;2023-09-12T09:27:06;14.70;94.40
63094;DHT22;49183;51.380;0.098;2023-09-12T09:29:46;14.60;94.40
63094;DHT22;49183;51.380;0.098;2023-09-12T09:32:18;14.70;94.40
63094;DHT22;49183;51.380;0.098;2023-09-12T09:34:46;14.80;94.40
63094;DHT22;49183;51.380;0.098;2023-09-12T09:37:14;14.80;94.40
63094;DHT22;49183;51.380;0.098;2023-09-12T09:39:43;14.80;94.30
63094;DHT22;49183;51.380;0.098;2023-09-12T09:42:11;14.80;94.20
63094;DHT22;49183;51.380;0.098;2023-09-12T09:44:39;14.80;94.20
63094;DHT22;49183;51.380;0.098;2023-09-12T09:47:07;14.70;94.20
63094;DHT22;49183;51.380;0.098;2023-09-12T09:49:35;14.70;94.30
63094;DHT22;49183;51.380;0.098;2023-09-12T09:52:04;14.70;94.40
63094;DHT22;49183;51.380;0.098;2023-09-12T09:54:32;14.80;94.30
63094;DHT22;49183;51.380;0.098;2023-09-12T09:57:00;14.70;94.20
63094;DHT22;49183;51.380;0.098;2023-09-12T09:59:28;14.70;94.30
63094;DHT22;49183;51.380;0.098;2023-09-12T10:01:57;14.80;94.40
63094;DHT22;49183;51.380;0.098;2023-09-12T10:04:28;14.80;94.40
63094;DHT22;49183;51.380;0.098;2023-09-12T10:06:57;14.80;94.30
63094;DHT22;49183;51.380;0.098;2023-09-12T10:09:27;14.80;94.30
63094;DHT22;49183;51.380;0.098;2023-09-12T10:11:57;14.80;94.20
63094;DHT22;49183;51.380;0.098;2023-09-12T10:14:26;14.70;94.20
63094;DHT22;49183;51.380;0.098;2023-09-12T10:17:01;14.80;94.30
63094;DHT22;49183;51.380;0.098;2023-09-12T10:19:56;14.80;94.30
63094;DHT22;49183;51.380;0.098;2023-09-12T10:22:37;14.80;94.20
63094;DHT22;49183;51.380;0.098;2023-09-12T10:25:07;14.60;94.00
63094;DHT22;49183;51.380;0.098;2023-09-12T10:27:36;14.70;94.20
63094;DHT22;49183;51.380;0.098;2023-09-12T10:30:07;14.70;94.30
63094;DHT22;49183;51.380;0.098;2023-09-12T10:32:36;14.80;94.40
63094;DHT22;49183;51.380;0.098;2023-09-12T10:35:06;14.80;94.60
63094;DHT22;49183;51.380;0.098;2023-09-12T10:37:38;15.00;94.60
63094;DHT22;49183;51.380;0.098;2023-09-12T10:40:10;15.10;94.40
63094;DHT22;49183;51.380;0.098;2023-09-12T10:42:39;15.20;94.50
63094;DHT22;49183;51.380;0.098;2023-09-12T10:45:09;15.20;94.10
63094;DHT22;49183;51.380;0.098;2023-09-12T10:47:37;15.20;94.00
63094;DHT22;49183;51.380;0.098;2023-09-12T10:50:06;15.20;93.90
63094;DHT22;49183;51.380;0.098;2023-09-12T10:52:34;15.10;94.00
63094;DHT22;49183;51.380;0.098;2023-09-12T10:55:15;15.10;94.00
63094;DHT22;49183;51.380;0.098;2023-09-12T11:00:30;15.20;94.10
63094;DHT22;49183;51.380;0.098;2023-09-12T11:05:56;15.10;93.70
63094;DHT22;49183;51.380;0.098;2023-09-12T11:08:25;15.00;93.60
63094;DHT22;49183;51.380;0.098;2023-09-12T11:11:16;14.90;93.70
63094;DHT22;49183;51.380;0.098;2023-09-12T11:13:46;14.90;93.80
63094;DHT22;49183;51.380;0.098;2023-09-12T11:16:17;14.90;93.90
63094;DHT22;49183;51.380;0.098;2023-09-12T11:21:40;15.00;94.00
63094;DHT22;49183;51.380;0.098;2023-09-12T11:24:08;14.90;93.80
63094;DHT22;49183;51.380;0.098;2023-09-12T11:26:58;14.90;93.80
63094;DHT22;49183;51.380;0.098;2023-09-12T11:29:37;14.90;93.90
63094;DHT22;49183;51.380;0.098;2023-09-12T11:32:06;15.00;93.90
63094;DHT22;49183;51.380;0.098;2023-09-12T11:34:43;15.00;93.90
63094;DHT22;49183;51.380;0.098;2023-09-12T11:37:23;15.10;94.10
63094;DHT22;49183;51.380;0.098;2023-09-12T11:39:53;15.20;94.10
63094;DHT22;49183;51.380;0.098;2023-09-12T11:42:21;15.30;94.00
63094;DHT22;49183;51.380;0.098;2023-09-12T11:44:53;15.30;93.80
63094;DHT22;49183;51.380;0.098;2023-09-12T11:47:21;15.30;93.70
63094;DHT22;49183;51.380;0.098;2023-09-12T11:49:49;15.30;93.50
63094;DHT22;49183;51.380;0.098;2023-09-12T11:52:16;15.30;93.40
63094;DHT22;49183;51.380;0.098;2023-09-12T11:54:44;15.30;93.60
63094;DHT22;49183;51.380;0.098;2023-09-12T11:57:14;15.30;93.60
63094;DHT22;49183;51.380;0.098;2023-09-12T11:59:46;15.40;93.60
63094;DHT22;49183;51.380;0.098;2023-09-12T12:02:16;15.40;93.50
63094;DHT22;49183;51.380;0.098;2023-09-12T12:04:45;15.40;93.50
63094;DHT22;49183;51.380;0.098;2023-09-12T12:07:13;15.40;93.50
63094;DHT22;49183;51.380;0.098;2023-09-12T12:09:43;15.40;93.30
63094;DHT22;49183;51.380;0.098;2023-09-12T12:12:13;15.40;93.20
63094;DHT22;49183;51.380;0.098;2023-09-12T12:14:41;15.30;93.20
63094;DHT22;49183;51.380;0.098;2023-09-12T12:17:11;15.40;93.40
63094;DHT22;49183;51.380;0.098;2023-09-12T12:19:39;15.30;93.40
63094;DHT22;49183;51.380;0.098;2023-09-12T12:22:07;15.40;93.50
63094;DHT22;49183;51.380;0.098;2023-09-12T12:24:44;15.40;93.20
63094;DHT22;49183;51.380;0.098;2023-09-12T12:27:15;15.40;93.20
63094;DHT22;49183;51.380;0.098;2023-09-12T12:29:45;15.50;93.00
63094;DHT22;49183;51.380;0.098;2023-09-12T12:32:15;15.50;92.60
63094;DHT22;49183;51.380;0.098;2023-09-12T12:34:48;15.50;92.60
63094;DHT22;49183;51.380;0.098;2023-09-12T12:37:36;15.50;92.70
63094;DHT22;49183;51.380;0.098;2023-09-12T12:40:06;15.50;92.40
63094;DHT22;49183;51.380;0.098;2023-09-12T12:42:39;15.50;92.20
63094;DHT22;49183;51.380;0.098;2023-09-12T12:45:22;15.50;92.20
63094;DHT22;49183;51.380;0.098;2023-09-12T12:47:57;15.40;92.10
63094;DHT22;49183;51.380;0.098;2023-09-12T12:50:25;15.40;92.20
63094;DHT22;49183;51.380;0.098;2023-09-12T12:52:53;15.40;92.30
63094;DHT22;49183;51.380;0.098;2023-09-12T12:55:21;15.40;92.30
63094;DHT22;49183;51.380;0.098;2023-09-12T12:57:53;15.30;92.30
63094;DHT22;49183;51.380;0.098;2023-09-12T13:00:21;15.40;92.50
63094;DHT22;49183;51.380;0.098;2023-09-12T13:02:50;15.40;92.40
63094;DHT22;49183;51.380;0.098;2023-09-12T13:05:28;15.30;92.20
63094;DHT22;49183;51.380;0.098;2023-09-12T13:07:56;15.30;92.30
63094;DHT22;49183;51.380;0.098;2023-09-12T13:10:24;15.30;92.40
63094;DHT22;49183;51.380;0.098;2023-09-12T13:12:56;15.30;92.50
63094;DHT22;49183;51.380;0.098;2023-09-12T13:15:23;15.20;92.30
63094;DHT22;49183;51.380;0.098;2023-09-12T13:17:51;15.20;92.60
63094;DHT22;49183;51.380;0.098;2023-09-12T13:20:19;15.10;92.80
63094;DHT22;49183;51.380;0.098;2023-09-12T13:22:48;15.10;92.80
63094;DHT22;49183;51.380;0.098;2023-09-12T13:25:15;15.10;93.00
63094;DHT22;49183;51.380;0.098;2023-09-12T13:27:43;15.20;93.10
63094;DHT22;49183;51.380;0.098;2023-09-12T13:30:11;15.20;93.00
63094;DHT22;49183;51.380;0.098;2023-09-12T13:32:39;15.20;93.00
63094;DHT22;49183;51.380;0.098;2023-09-12T13:35:07;15.20;93.10
63094;DHT22;49183;51.380;0.098;2023-09-12T13:37:35;15.20;93.10
63094;DHT22;49183;51.380;0.098;2023-09-12T13:40:03;15.20;93.00
63094;DHT22;49183;51.380;0.098;2023-09-12T13:42:34;15.10;93.10
63094;DHT22;49183;51.380;0.098;2023-09-12T13:45:02;15.20;93.30
63094;DHT22;49183;51.380;0.098;2023-09-12T13:47:30;15.10;93.20
63094;DHT22;49183;51.380;0.098;2023-09-12T13:49:58;15.10;93.40
63094;DHT22;49183;51.380;0.098;2023-09-12T13:52:29;15.20;93.50
63094;DHT22;49183;51.380;0.098;2023-09-12T13:54:56;15.20;93.20
63094;DHT22;49183;51.380;0.098;2023-09-12T13:57:26;15.10;93.20
63094;DHT22;49183;51.380;0.098;2023-09-12T13:59:53;15.10;93.30
63094;DHT22;49183;51.380;0.098;2023-09-12T14:02:21;15.10;93.30
63094;DHT22;49183;51.380;0.098;2023-09-12T14:04:51;15.10;93.30
63094;DHT22;49183;51.380;0.098;2023-09-12T14:07:35;15.10;93.30
63094;DHT22;49183;51.380;0.098;2023-09-12T14:10:06;15.10;93.20
63094;DHT22;49183;51.380;0.098;2023-09-12T14:12:34;15.00;93.20
63094;DHT22;49183;51.380;0.098;2023-09-12T14:15:02;15.00;93.20
63094;DHT22;49183;51.380;0.098;2023-09-12T14:17:35;14.90;93.20
63094;DHT22;49183;51.380;0.098;2023-09-12T14:20:09;14.90;93.30
63094;DHT22;49183;51.380;0.098;2023-09-12T14:22:37;14.80;93.40
63094;DHT22;49183;51.380;0.098;2023-09-12T14:25:05;14.80;93.20
63094;DHT22;49183;51.380;0.098;2023-09-12T14:27:33;14.60;93.20
63094;DHT22;49183;51.380;0.098;2023-09-12T14:30:01;14.50;93.50
63094;DHT22;49183;51.380;0.098;2023-09-12T14:32:30;14.60;93.70
63094;DHT22;49183;51.380;0.098;2023-09-12T14:34:58;14.70;94.00
63094;DHT22;49183;51.380;0.098;2023-09-12T14:37:26;14.80;94.10
63094;DHT22;49183;51.380;0.098;2023-09-12T14:39:55;15.00;94.00
63094;DHT22;49183;51.380;0.098;2023-09-12T14:42:23;15.10;93.80
63094;DHT22;49183;51.380;0.098;2023-09-12T14:44:51;15.20;93.20
63094;DHT22;49183;51.380;0.098;2023-09-12T14:47:18;15.30;93.00
63094;DHT22;49183;51.380;0.098;2023-09-12T14:49:46;15.30;92.60
63094;DHT22;49183;51.380;0.098;2023-09-12T14:52:18;15.30;92.50
63094;DHT22;49183;51.380;0.098;2023-09-12T14:54:54;15.40;92.40
63094;DHT22;49183;51.380;0.098;2023-09-12T14:57:21;15.30;92.00
63094;DHT22;49183;51.380;0.098;2023-09-12T14:59:50;15.30;91.70
63094;DHT22;49183;51.380;0.098;2023-09-12T15:02:18;15.30;91.60
63094;DHT22;49183;51.380;0.098;2023-09-12T15:04:46;15.20;91.80
63094;DHT22;49183;51.380;0.098;2023-09-12T15:07:14;15.20;91.80
63094;DHT22;49183;51.380;0.098;2023-09-12T15:09:44;15.20;91.80
63094;DHT22;49183;51.380;0.098;2023-09-12T15:12:12;15.20;91.90
63094;DHT22;49183;51.380;0.098;2023-09-12T15:14:40;15.10;91.70
63094;DHT22;49183;51.380;0.098;2023-09-12T15:17:08;15.00;91.80
63094;DHT22;49183;51.380;0.098;2023-09-12T15:19:35;15.00;91.90
63094;DHT22;49183;51.380;0.098;2023-09-12T15:22:03;14.90;91.90
63094;DHT22;49183;51.380;0.098;2023-09-12T15:24:31;14.80;91.80
63094;DHT22;49183;51.380;0.098;2023-09-12T15:26:59;14.80;91.90
63094;DHT22;49183;51.380;0.098;2023-09-12T15:29:26;14.80;92.20
63094;DHT22;49183;51.380;0.098;2023-09-12T15:31:54;14.80;92.20
63094;DHT22;49183;51.380;0.098;2023-09-12T15:34:22;14.70;92.10
63094;DHT22;49183;51.380;0.098;2023-09-12T15:37:06;14.60;92.30
63094;DHT22;49183;51.380;0.098;2023-09-12T15:39:49;14.60;92.50
63094;DHT22;49183;51.380;0.098;2023-09-12T15:42:17;14.70;92.80
63094;DHT22;49183;51.380;0.098;2023-09-12T15:45:01;14.70;92.80
63094;DHT22;49183;51.380;0.098;2023-09-12T15:47:31;14.70;92.60
63094;DHT22;49183;51.380;0.098;2023-09-12T15:50:00;14.70;92.60
63094;DHT22;49183;51.380;0.098;2023-09-12T15:52:27;14.70;92.70
63094;DHT22;49183;51.380;0.098;2023-09-12T15:54:55;14.60;92.70